Time;durP1;ratioP1;P1;durP2;ratioP2;P2;SDS_P1;SDS_P2;PMS_P1;PMS_P2;Temp;Humidity;BMP_temperature;BMP_pressure;BME280_temperature;BME280_humidity;BME280_pressure;Samples;Min_cycle;Max_cycle;Signal;HPM_P1;HPM_P2
2024/02/16 00:01:20;;;;;;;2.60;1.20;;;11.60;99.90;;;-144.05;60.32;57016.63;5012785;28;20510;-78
2024/02/16 00:03:46;;;;;;;3.60;1.27;;;11.10;99.90;;;-144.05;60.39;56995.38;5012986;28;20102;-76
2024/02/16 00:06:13;;;;;;;9.40;1.50;;;;;;;-144.05;60.02;57012.38;5012753;28;20511;-78
2024/02/16 00:08:38;;;;;;;4.18;1.27;;;10.50;99.90;;;-144.05;60.09;56969.91;5017570;28;20041;-79
2024/02/16 00:11:05;;;;;;;3.55;1.15;;;15.20;99.90;;;-144.05;59.89;56991.13;5033103;28;20030;-78
2024/02/16 00:13:32;;;;;;;1.95;1.13;;;15.50;99.90;;;-144.05;59.92;56984.78;5040541;28;20040;-79
2024/02/16 00:15:59;;;;;;;7.13;1.40;;;15.20;99.90;;;-144.05;59.93;56989.00;5017844;28;20050;-76
2024/02/16 00:18:25;;;;;;;4.38;1.50;;;;;;;-144.05;59.77;56993.25;5016479;28;20092;-79
2024/02/16 00:20:51;;;;;;;3.47;1.33;;;;;;;-144.05;60.12;56997.50;5015865;28;20104;-79
2024/02/16 00:23:19;;;;;;;3.30;1.40;;;;;;;-144.05;59.79;56974.16;5029790;28;20026;-78
2024/02/16 00:25:45;;;;;;;4.00;1.20;;;10.70;99.90;;;-144.05;59.82;57014.50;5013192;28;20061;-79
2024/02/16 00:28:11;;;;;;;3.90;1.52;;;;;;;-144.05;59.55;57008.13;5016466;28;20014;-79
2024/02/16 00:30:38;;;;;;;2.00;1.08;;;10.60;99.90;;;-144.05;59.51;56993.25;5034135;28;20041;-76
2024/02/16 00:33:04;;;;;;;3.80;1.30;;;11.20;99.90;;;-144.05;59.89;57010.25;5021466;28;20503;-81
2024/02/16 00:35:33;;;;;;;2.13;1.30;;;;;;;-144.05;59.55;56972.03;5013117;28;20026;-82
2024/02/16 00:38:00;;;;;;;2.05;1.08;;;10.70;99.90;;;-144.05;59.78;56989.00;5013001;28;20109;-80
2024/02/16 00:40:27;;;;;;;2.85;1.10;;;;;;;-144.05;59.53;56997.50;5012638;28;20474;-79
2024/02/16 00:42:52;;;;;;;2.08;0.90;;;10.60;99.90;;;-144.05;59.34;56984.78;5011013;28;20034;-79
2024/02/16 00:45:18;;;;;;;3.15;1.45;;;11.30;99.90;;;-144.05;59.53;56993.25;5011907;28;20506;-79
2024/02/16 00:47:45;;;;;;;3.13;1.50;;;;;;;-144.05;59.31;57008.13;5011614;28;20026;-77
2024/02/16 00:50:12;;;;;;;3.55;1.38;;;13.70;99.90;;;-144.05;59.31;56999.63;5011965;28;20034;-76
2024/02/16 00:52:39;;;;;;;2.58;1.10;;;15.40;99.90;;;-144.05;59.06;56999.63;5012176;28;20030;-79
2024/02/16 00:55:05;;;;;;;2.63;1.10;;;13.90;99.90;;;-144.05;59.16;57008.13;5011787;28;20026;-79
2024/02/16 00:57:34;;;;;;;3.63;1.00;;;10.90;99.90;;;-144.05;58.59;56980.53;5011762;28;20029;-80
2024/02/16 01:00:00;;;;;;;2.03;1.02;;;11.40;99.90;;;-144.05;58.68;56986.91;5012012;28;20045;-78
2024/02/16 01:02:25;;;;;;;5.15;1.58;;;11.70;99.90;;;-144.05;58.78;57018.75;5011526;28;20065;-77
2024/02/16 01:04:52;;;;;;;3.00;1.33;;;11.50;99.90;;;-144.05;59.03;57014.50;5011632;28;20105;-79
2024/02/16 01:07:18;;;;;;;5.28;1.10;;;11.30;99.90;;;-144.05;59.42;56986.91;5009823;28;20053;-80
2024/02/16 01:09:44;;;;;;;2.60;1.48;;;15.30;99.90;;;-144.05;59.41;56999.63;5011337;28;20026;-77
2024/02/16 01:12:10;;;;;;;2.10;1.20;;;11.60;99.90;;;-144.05;59.23;57001.75;5011486;28;20037;-78
2024/02/16 01:14:37;;;;;;;2.08;1.33;;;;;;;-144.05;59.47;57006.00;5011421;28;20030;-76
2024/02/16 01:17:03;;;;;;;3.42;1.38;;;11.40;99.90;;;-144.05;59.53;56993.25;5010073;28;20034;-78
2024/02/16 01:19:28;;;;;;;5.00;1.20;;;10.90;99.90;;;-144.05;59.62;56989.00;5011257;28;20044;-79
2024/02/16 01:21:57;;;;;;;3.85;1.58;;;11.20;99.90;;;-144.05;59.46;57003.88;5011457;28;20030;-77
2024/02/16 01:24:24;;;;;;;6.35;1.25;;;11.00;99.90;;;-144.05;59.65;56993.25;5013773;28;20028;-79
2024/02/16 01:26:50;;;;;;;4.25;1.30;;;;;;;-144.05;59.79;56965.66;5011096;28;20519;-78
2024/02/16 01:29:16;;;;;;;4.03;1.50;;;11.00;99.90;;;-144.05;59.43;56984.78;5011339;28;20030;-78
2024/02/16 01:31:42;;;;;;;2.63;1.30;;;10.90;99.90;;;-144.05;59.65;56995.38;5012090;28;20026;-78
2024/02/16 01:34:08;;;;;;;5.75;1.42;;;10.60;99.90;;;-144.05;59.62;56986.91;5015588;28;20080;-77
2024/02/16 01:36:34;;;;;;;1.85;0.95;;;10.70;99.90;;;-144.05;59.67;56978.41;5015127;28;20061;-79
2024/02/16 01:38:59;;;;;;;3.97;1.30;;;15.30;99.90;;;-144.05;59.62;57016.63;5015149;28;20081;-78
2024/02/16 01:41:25;;;;;;;4.10;1.20;;;10.90;99.90;;;-144.05;59.84;56984.78;5014979;28;20044;-77
2024/02/16 01:43:57;;;;;;;5.80;1.20;;;15.40;99.90;;;-144.05;60.36;56993.25;5013933;28;20037;-78
2024/02/16 01:46:23;;;;;;;6.93;1.10;;;10.90;99.90;;;-144.05;60.04;57018.75;5014629;28;20026;-79
2024/02/16 01:48:50;;;;;;;3.03;1.10;;;15.10;99.90;;;-144.05;60.10;57006.00;5015102;28;20068;-77
2024/02/16 01:51:16;;;;;;;2.63;1.20;;;11.20;99.90;;;-144.05;60.58;57008.13;5013529;28;20049;-77
2024/02/16 01:53:42;;;;;;;3.42;1.65;;;10.80;99.90;;;-144.05;60.50;56967.78;5014359;28;20716;-78
2024/02/16 01:56:08;;;;;;;2.83;1.20;;;10.90;99.90;;;-144.05;60.18;57008.13;5014583;28;20034;-76
2024/02/16 01:58:34;;;;;;;4.07;1.52;;;10.60;99.90;;;-144.05;60.13;56972.03;5014755;28;20108;-77
2024/02/16 02:01:01;;;;;;;4.30;1.05;;;11.40;99.90;;;-144.05;60.20;57001.75;5013293;28;20499;-77
2024/02/16 02:03:29;;;;;;;1.88;1.20;;;10.40;99.90;;;-144.05;60.34;57012.38;5014758;28;20103;-79
2024/02/16 02:05:55;;;;;;;4.13;1.30;;;;;;;-144.05;60.01;56986.91;5014253;28;20034;-77
2024/02/16 02:08:21;;;;;;;1.73;1.10;;;10.90;99.90;;;-144.05;59.85;56993.25;5014755;28;20026;-79
2024/02/16 02:10:47;;;;;;;1.92;1.10;;;10.80;99.90;;;-144.05;60.07;56997.50;5014644;28;20026;-79
2024/02/16 02:13:14;;;;;;;5.10;1.30;;;10.60;99.90;;;-144.05;60.16;56950.78;5014352;28;20026;-79
2024/02/16 02:15:41;;;;;;;3.40;1.15;;;10.70;99.90;;;-144.05;60.01;57006.00;5014093;28;20376;-79
2024/02/16 02:18:07;;;;;;;3.95;1.23;;;15.20;99.90;;;-144.05;60.52;56989.00;5014284;28;20025;-79
2024/02/16 02:20:33;;;;;;;3.45;1.30;;;11.10;99.90;;;-144.05;60.70;56991.13;5013919;28;20033;-79
2024/02/16 02:22:59;;;;;;;2.40;1.20;;;14.90;99.90;;;-144.05;60.39;57006.00;5012695;28;20033;-79
2024/02/16 02:25:28;;;;;;;2.88;1.30;;;15.20;99.90;;;-144.05;60.50;56959.28;5018014;28;20029;-77
2024/02/16 02:27:55;;;;;;;3.42;1.40;;;;;;;-144.05;60.30;57003.88;5013937;28;20052;-79
2024/02/16 02:30:21;;;;;;;2.25;1.20;;;10.80;99.90;;;-144.05;60.18;56984.78;5012740;28;20057;-76
2024/02/16 02:32:48;;;;;;;3.60;1.40;;;10.70;99.90;;;-144.05;60.03;56997.50;5013689;28;20109;-77
2024/02/16 02:35:17;;;;;;;3.05;1.38;;;11.20;99.90;;;-144.05;59.85;57001.75;5012628;28;20030;-77
2024/02/16 02:37:43;;;;;;;3.35;1.58;;;11.40;99.90;;;-144.05;59.38;56989.00;5013422;28;20049;-77
2024/02/16 02:40:10;;;;;;;3.28;1.30;;;11.60;99.90;;;-144.05;59.46;57018.75;5013875;28;20113;-80
2024/02/16 02:42:36;;;;;;;4.00;1.35;;;10.90;99.90;;;-144.05;59.28;56993.25;5012853;28;20388;-78
2024/02/16 02:45:03;;;;;;;2.40;1.27;;;11.70;99.90;;;-144.05;59.49;57014.50;5013871;28;20052;-78
2024/02/16 02:47:29;;;;;;;2.08;1.20;;;10.90;99.90;;;-144.05;58.58;57001.75;5011948;28;20038;-79
2024/02/16 02:49:55;;;;;;;2.50;1.08;;;10.80;99.90;;;-144.05;58.71;56995.38;5014055;28;20444;-79
2024/02/16 02:52:22;;;;;;;2.60;1.05;;;15.40;99.90;;;-144.05;58.46;56967.78;5013698;28;20038;-76
2024/02/16 02:54:47;;;;;;;1.75;0.88;;;11.10;99.90;;;-144.05;58.44;57001.75;5014429;28;20037;-79
2024/02/16 02:57:14;;;;;;;3.55;1.27;;;;;;;-144.05;58.51;57023.00;5013970;28;20029;-77
2024/02/16 02:59:39;;;;;;;2.45;1.30;;;11.30;99.90;;;-144.05;58.63;57018.75;5012156;28;20021;-79
2024/02/16 03:02:05;;;;;;;3.88;1.30;;;15.30;99.90;;;-144.05;58.70;56984.78;5012258;28;20060;-78
2024/02/16 03:04:31;;;;;;;3.22;1.23;;;10.90;99.90;;;-144.05;58.83;56997.50;5013788;28;20100;-77
2024/02/16 03:06:57;;;;;;;2.35;1.20;;;11.60;99.90;;;-144.05;58.46;57012.38;5013364;28;20398;-77
2024/02/16 03:09:23;;;;;;;2.72;1.33;;;11.20;99.90;;;-144.05;58.51;56955.03;5013016;28;20018;-79
2024/02/16 03:11:49;;;;;;;3.63;1.25;;;;;;;-144.05;58.39;56993.25;5017173;28;20034;-80
2024/02/16 03:14:19;;;;;;;2.58;1.05;;;15.50;99.90;;;-144.05;57.88;56991.13;5024251;28;20042;-80
2024/02/16 03:16:45;;;;;;;2.78;1.20;;;10.50;99.90;;;-144.05;58.19;56972.03;5034157;28;20097;-80
2024/02/16 03:19:11;;;;;;;2.88;1.25;;;;;;;-144.05;58.28;56976.28;5016957;28;20106;-79
2024/02/16 03:21:37;;;;;;;6.20;1.45;;;;;;;-144.05;57.88;56997.50;5013366;28;20018;-80
2024/02/16 03:24:04;;;;;;;3.35;1.60;;;11.10;99.90;;;-144.05;58.12;56980.53;5015794;28;20483;-79
2024/02/16 03:26:30;;;;;;;2.90;1.55;;;10.90;99.90;;;-144.05;58.06;56991.13;5015237;28;20058;-78
2024/02/16 03:28:56;;;;;;;2.67;1.30;;;11.60;99.90;;;-144.05;58.13;56974.16;5013007;28;20415;-79
2024/02/16 03:31:24;;;;;;;3.70;1.42;;;11.00;99.90;;;-144.05;58.30;56989.00;5013450;28;20014;-79
2024/02/16 03:33:52;;;;;;;3.05;1.20;;;11.70;99.90;;;-144.05;58.02;56997.50;5013885;28;20052;-78
2024/02/16 03:36:19;;;;;;;2.70;1.33;;;;;;;-144.05;57.95;57008.13;5013332;28;20058;-78
2024/02/16 03:38:51;;;;;;;2.38;1.30;;;11.50;99.90;;;-144.05;58.10;57008.13;5011389;28;20775;-78
2024/02/16 03:41:25;;;;;;;3.47;1.30;;;11.50;99.90;;;-144.05;58.72;56984.78;5013153;28;20041;-79
2024/02/16 03:43:51;;;;;;;1.83;1.02;;;13.80;99.90;;;-144.05;58.65;56989.00;5021035;28;20033;-80
2024/02/16 03:46:17;;;;;;;4.22;1.13;;;15.30;99.90;;;-144.05;59.12;56991.13;5012752;28;20018;-79
2024/02/16 03:48:44;;;;;;;3.53;1.15;;;15.40;99.90;;;-144.05;59.29;56984.78;5011470;28;20033;-77
2024/02/16 03:51:10;;;;;;;3.42;1.40;;;15.20;99.90;;;-144.05;59.41;56974.16;5011270;28;20022;-79
2024/02/16 03:53:36;;;;;;;4.03;1.63;;;11.10;99.90;;;-144.05;59.38;56955.03;5012408;28;20567;-79
2024/02/16 03:56:02;;;;;;;3.13;1.50;;;11.50;99.90;;;-144.05;59.55;56993.25;5017742;28;20022;-79
2024/02/16 03:58:28;;;;;;;2.63;1.10;;;11.50;99.90;;;-144.05;59.47;56976.28;5017904;28;20022;-80
2024/02/16 04:00:54;;;;;;;3.38;1.23;;;;;;;-144.05;60.07;56986.91;5019168;28;20018;-80
2024/02/16 04:03:20;;;;;;;3.25;1.20;;;;;;;-144.05;59.69;56995.38;5018491;28;20056;-78
2024/02/16 04:05:46;;;;;;;2.25;1.10;;;11.20;99.90;;;-144.05;59.50;56991.13;5015879;28;20498;-79
2024/02/16 04:08:12;;;;;;;3.22;1.08;;;15.10;99.90;;;-144.05;59.82;56993.25;5014229;28;20022;-79
2024/02/16 04:10:39;;;;;;;3.17;1.30;;;;;;;-144.05;59.88;56969.91;5013013;28;20021;-77
2024/02/16 04:13:04;;;;;;;3.22;1.10;;;10.60;99.90;;;-144.05;59.37;56999.63;5012317;28;20033;-78
2024/02/16 04:15:30;;;;;;;1.17;0.82;;;14.80;99.90;;;-144.05;59.94;56995.38;5010832;28;20026;-78
2024/02/16 04:17:56;;;;;;;4.25;1.08;;;10.80;99.90;;;-144.05;60.17;56982.66;5010775;28;20025;-77
2024/02/16 04:20:23;;;;;;;3.20;0.90;;;10.80;99.90;;;-144.05;60.63;57006.00;5011868;28;20088;-78
2024/02/16 04:22:48;;;;;;;3.75;1.40;;;10.50;99.90;;;-144.05;60.63;57012.38;5011837;28;20475;-79
2024/02/16 04:25:14;;;;;;;3.33;1.70;;;11.10;99.90;;;-144.05;60.52;56984.78;5012363;28;20036;-78
2024/02/16 04:27:40;;;;;;;2.65;1.23;;;11.50;99.90;;;-144.05;60.25;56976.28;5011986;28;20030;-76
2024/02/16 04:30:07;;;;;;;3.90;1.23;;;11.40;99.90;;;-144.05;60.17;56993.25;5012012;28;20060;-78
2024/02/16 04:32:33;;;;;;;4.20;1.23;;;10.60;99.90;;;-144.05;59.99;56984.78;5022815;28;20025;-78
2024/02/16 04:34:59;;;;;;;4.53;1.50;;;11.10;99.90;;;-144.05;60.02;56995.38;5011775;28;20032;-79
2024/02/16 04:37:27;;;;;;;5.53;1.50;;;10.70;99.90;;;-144.05;59.87;56993.25;5011391;28;20080;-77
2024/02/16 04:39:53;;;;;;;2.13;1.63;;;11.10;99.90;;;-144.05;60.23;57018.75;5026767;28;20025;-79
2024/02/16 04:42:19;;;;;;;2.50;1.05;;;11.50;99.90;;;-144.05;60.34;56961.41;5010259;28;20026;-79
2024/02/16 04:44:45;;;;;;;2.38;1.20;;;10.80;99.90;;;-144.05;60.23;57001.75;5025189;28;20551;-78
2024/02/16 04:47:11;;;;;;;4.18;1.92;;;11.50;99.90;;;-144.05;59.97;57001.75;5011206;28;20061;-79
2024/02/16 04:49:38;;;;;;;4.05;1.35;;;11.00;99.90;;;-144.05;59.91;56976.28;5011256;28;20025;-77
2024/02/16 04:52:04;;;;;;;3.17;1.17;;;11.40;99.90;;;-144.05;60.26;56989.00;5010150;28;20026;-78
2024/02/16 04:54:30;;;;;;;4.53;1.50;;;11.30;99.90;;;-144.05;60.60;56999.63;5011423;28;20077;-78
2024/02/16 04:56:56;;;;;;;3.50;1.38;;;11.00;99.90;;;-144.05;60.50;56989.00;5009779;28;20025;-78
2024/02/16 04:59:22;;;;;;;3.38;1.40;;;15.00;99.90;;;-144.05;60.43;56982.66;5010110;28;20046;-80
2024/02/16 05:01:47;;;;;;;3.13;1.23;;;14.70;99.90;;;-144.05;60.80;56982.66;5026284;28;20464;-78
2024/02/16 05:04:16;;;;;;;2.83;1.63;;;15.00;99.90;;;-144.05;60.65;56995.38;5011229;28;20072;-75
2024/02/16 05:06:45;;;;;;;1.60;1.20;;;15.40;99.90;;;-144.05;60.79;56984.78;5008908;28;20062;-78
2024/02/16 05:09:12;;;;;;;3.40;1.48;;;;;;;-144.05;60.43;56993.25;5011467;28;20438;-75
2024/02/16 05:11:37;;;;;;;2.78;1.30;;;11.30;99.90;;;-144.05;60.58;56997.50;5009541;28;20029;-80
2024/02/16 05:14:03;;;;;;;2.58;1.08;;;11.20;99.90;;;-144.05;60.62;56984.78;5011319;28;20432;-81
2024/02/16 05:16:29;;;;;;;5.10;1.65;;;10.60;99.90;;;-144.05;60.74;57008.13;5009518;28;20104;-77
2024/02/16 05:18:58;;;;;;;3.33;1.38;;;15.40;99.90;;;-144.05;60.80;56991.13;5011466;28;20046;-77
2024/02/16 05:21:24;;;;;;;3.70;1.60;;;10.70;99.90;;;-144.05;61.24;56980.53;5011455;28;20053;-79
2024/02/16 05:23:50;;;;;;;3.50;1.30;;;11.60;99.90;;;-144.05;60.77;56980.53;5010470;28;20104;-77
2024/02/16 05:26:16;;;;;;;7.07;1.30;;;10.90;99.90;;;-144.05;61.03;57014.50;5013952;28;20050;-77
2024/02/16 05:28:42;;;;;;;3.25;1.23;;;10.90;99.90;;;-144.05;61.30;56986.91;5009881;28;20029;-78
2024/02/16 05:31:18;;;;;;;2.47;1.30;;;10.80;99.90;;;-144.05;61.51;56986.91;5011393;28;20109;-76
2024/02/16 05:33:51;;;;;;;9.02;1.95;;;11.10;99.90;;;-144.05;61.56;57006.00;5010088;28;20496;-78
2024/02/16 05:36:29;;;;;;;4.18;1.48;;;11.40;99.90;;;-144.05;61.61;57008.13;5009752;28;20487;-80
2024/02/16 05:38:56;;;;;;;2.65;1.50;;;;;;;-144.05;61.58;56978.41;5026979;28;20395;-78
2024/02/16 05:41:22;;;;;;;4.30;1.30;;;11.40;99.90;;;-144.05;61.82;56967.78;5011773;28;20021;-79
2024/02/16 05:43:48;;;;;;;3.53;2.53;;;11.50;99.90;;;-144.05;62.01;56984.78;5011523;28;20022;-77
2024/02/16 05:46:17;;;;;;;4.20;2.05;;;11.10;99.90;;;-144.05;62.25;57001.75;5011121;28;20029;-78
2024/02/16 05:48:44;;;;;;;2.42;1.40;;;11.30;99.90;;;-144.05;62.26;56974.16;5010979;28;20462;-77
2024/02/16 05:51:14;;;;;;;3.85;1.50;;;13.90;99.90;;;-144.05;62.81;57008.13;5011201;28;20495;-78
2024/02/16 05:53:40;;;;;;;4.60;1.55;;;11.50;99.90;;;-144.05;63.06;56997.50;5011035;28;20062;-79
2024/02/16 05:56:07;;;;;;;3.47;1.70;;;13.90;99.90;;;-144.05;63.01;56969.91;5011421;28;20108;-80
2024/02/16 05:58:34;;;;;;;2.90;1.52;;;10.60;99.90;;;-144.05;63.09;56974.16;5027721;28;20079;-78
2024/02/16 06:01:04;;;;;;;2.65;1.38;;;15.30;99.90;;;-144.05;63.30;56982.66;5026121;28;20052;-77
2024/02/16 06:03:31;;;;;;;5.10;1.48;;;11.00;99.90;;;-144.05;63.26;57001.75;5026555;28;20145;-81
2024/02/16 06:05:58;;;;;;;4.40;1.67;;;;;;;-144.05;63.76;56993.25;5013301;28;20049;-80
2024/02/16 06:08:24;;;;;;;4.65;1.92;;;11.00;99.90;;;-144.05;63.81;56976.28;5012679;28;20386;-79
2024/02/16 06:10:54;;;;;;;4.95;1.77;;;10.70;99.90;;;-144.05;64.36;57025.13;5012040;28;20034;-80
2024/02/16 06:13:21;;;;;;;3.38;1.88;;;13.80;99.90;;;-144.05;64.32;56993.25;5011509;28;20022;-79
2024/02/16 06:15:47;;;;;;;2.80;1.35;;;15.10;99.90;;;-144.05;64.65;56991.13;5010928;28;20018;-79
2024/02/16 06:18:14;;;;;;;6.93;2.00;;;;;;;-144.05;64.60;56965.66;5018936;28;20129;-79
2024/02/16 06:20:39;;;;;;;6.90;1.60;;;11.00;99.90;;;-144.05;64.87;56986.91;5016133;28;20085;-77
2024/02/16 06:23:06;;;;;;;2.63;1.35;;;15.00;99.90;;;-144.05;64.46;56963.53;5016383;28;20101;-77
2024/02/16 06:25:32;;;;;;;4.63;1.48;;;10.90;99.90;;;-144.05;64.60;56995.38;5020557;28;20524;-80
2024/02/16 06:27:58;;;;;;;2.90;1.20;;;;;;;-144.05;64.61;56999.63;5016607;28;20105;-78
2024/02/16 06:30:24;;;;;;;5.85;1.77;;;;;;;-144.05;64.51;56978.41;5016207;28;20111;-80
2024/02/16 06:32:50;;;;;;;3.78;1.65;;;11.30;99.90;;;-144.05;64.73;56991.13;5015812;28;20062;-77
2024/02/16 06:35:16;;;;;;;5.03;2.22;;;11.10;99.90;;;-144.05;64.72;56976.28;5016272;28;20018;-76
2024/02/16 06:37:41;;;;;;;4.13;1.77;;;10.90;99.90;;;-144.05;65.43;57003.88;5016639;28;20101;-76
2024/02/16 06:40:11;;;;;;;3.50;1.80;;;11.30;99.90;;;-144.05;65.32;56980.53;5017337;28;20030;-77
2024/02/16 06:42:38;;;;;;;2.80;1.77;;;10.50;99.90;;;-144.05;65.11;56978.41;5017768;28;20021;-79
2024/02/16 06:45:05;;;;;;;4.20;1.83;;;15.50;99.90;;;-144.05;65.38;56997.50;5016793;28;20029;-80
2024/02/16 06:47:33;;;;;;;4.93;1.73;;;15.10;99.90;;;-144.05;65.09;56984.78;5017703;28;20058;-82
2024/02/16 06:49:59;;;;;;;3.75;1.83;;;11.60;99.90;;;-144.05;65.29;56999.63;5026508;28;20018;-78
2024/02/16 06:52:26;;;;;;;3.65;1.70;;;;;;;-144.05;65.71;56952.91;5015408;28;20025;-79
2024/02/16 06:54:53;;;;;;;5.63;1.63;;;;;;;-144.05;65.28;56993.25;5016133;28;20424;-80
2024/02/16 06:57:20;;;;;;;5.30;1.88;;;10.70;99.90;;;-144.05;64.94;56974.16;5015107;28;20033;-81
2024/02/16 06:59:46;;;;;;;2.22;1.20;;;10.50;99.90;;;-144.05;65.23;56965.66;5012290;28;20542;-78
2024/02/16 07:02:13;;;;;;;5.82;1.42;;;10.80;99.90;;;-144.05;65.54;56972.03;5015643;28;20049;-77
2024/02/16 07:04:41;;;;;;;3.15;1.60;;;11.10;99.90;;;-144.05;65.41;56999.63;5016087;28;20022;-81
2024/02/16 07:07:08;;;;;;;5.18;1.70;;;;;;;-144.05;65.38;56984.78;5016331;28;20026;-78
2024/02/16 07:09:34;;;;;;;4.38;1.83;;;10.50;99.90;;;-144.05;65.12;56982.66;5014927;28;20084;-80
2024/02/16 07:11:59;;;;;;;4.47;1.95;;;14.50;99.90;;;-144.05;65.81;56993.25;5016614;28;20026;-76
2024/02/16 07:14:26;;;;;;;3.03;1.77;;;11.00;99.90;;;-144.05;65.19;56984.78;5017271;28;20089;-82
2024/02/16 07:16:52;;;;;;;4.07;2.00;;;10.80;99.90;;;-144.05;65.43;56965.66;5032305;28;20568;-80
2024/02/16 07:19:18;;;;;;;5.40;1.77;;;10.70;99.90;;;-144.05;65.44;56997.50;5015857;28;20076;-79
2024/02/16 07:21:44;;;;;;;3.85;2.20;;;10.60;99.90;;;-144.05;65.09;56978.41;5021855;28;20116;-82
2024/02/16 07:24:10;;;;;;;3.75;1.80;;;11.00;99.90;;;-144.05;65.04;56991.13;5025850;28;20049;-79
2024/02/16 07:26:36;;;;;;;3.88;1.95;;;15.30;99.90;;;-144.05;64.76;57003.88;5025167;28;20056;-78
2024/02/16 07:29:13;;;;;;;5.53;2.00;;;15.10;99.90;;;-144.05;64.48;56967.78;5028032;28;20030;-77
2024/02/16 07:31:40;;;;;;;7.38;2.25;;;13.60;99.90;;;-144.05;64.79;56984.78;5016425;28;20553;-80
2024/02/16 07:34:06;;;;;;;2.92;1.65;;;10.70;99.90;;;-144.05;64.50;56967.78;5016426;28;20088;-80
2024/02/16 07:36:36;;;;;;;5.25;1.80;;;11.60;99.90;;;-144.05;64.50;56982.66;5016879;28;20462;-79
2024/02/16 07:39:04;;;;;;;4.35;1.70;;;9.90;99.90;;;-144.05;64.38;56999.63;5012189;28;20021;-81
2024/02/16 07:41:30;;;;;;;4.78;2.03;;;11.70;99.90;;;-144.05;64.57;56961.41;5016429;28;20069;-80
2024/02/16 07:43:56;;;;;;;4.28;1.90;;;11.40;99.90;;;-144.05;64.14;56972.03;5017021;28;20065;-80
2024/02/16 07:46:22;;;;;;;7.20;1.88;;;11.70;99.90;;;-144.05;63.89;56982.66;5014553;28;20025;-81
2024/02/16 07:48:49;;;;;;;5.45;1.90;;;11.60;99.90;;;-144.05;64.27;56972.03;5016504;28;20022;-78
2024/02/16 07:51:15;;;;;;;6.03;2.05;;;11.60;99.90;;;-144.05;64.42;56972.03;5016478;28;20029;-76
2024/02/16 07:53:42;;;;;;;3.75;1.63;;;11.60;99.90;;;-144.05;64.30;57001.75;5017254;28;20038;-79
2024/02/16 07:56:08;;;;;;;6.03;1.80;;;15.10;99.90;;;-144.05;63.96;56995.38;5016993;28;20076;-79
2024/02/16 07:58:33;;;;;;;4.47;1.50;;;15.30;99.90;;;-144.05;64.38;56980.53;5017825;28;20072;-81
2024/02/16 08:00:59;;;;;;;4.68;1.75;;;12.20;99.90;;;-144.05;64.67;56986.91;5015916;28;20503;-77
2024/02/16 08:03:25;;;;;;;3.90;2.15;;;11.40;99.90;;;-144.05;64.60;56986.91;5015074;28;20029;-80
2024/02/16 08:05:51;;;;;;;6.50;1.80;;;11.70;99.90;;;-144.05;64.49;56991.13;5015432;28;20036;-81
2024/02/16 08:08:17;;;;;;;4.95;1.80;;;;;;;-144.05;64.37;56989.00;5016620;28;20491;-79
2024/02/16 08:10:44;;;;;;;4.57;1.75;;;11.60;99.90;;;-144.05;63.90;56969.91;5016112;28;20045;-79
2024/02/16 08:13:10;;;;;;;3.78;2.03;;;11.80;99.90;;;-144.05;64.37;56974.16;5015844;28;20026;-79
2024/02/16 08:15:36;;;;;;;4.40;1.98;;;15.20;99.90;;;-144.05;64.06;56997.50;5015358;28;20163;-77
2024/02/16 08:18:02;;;;;;;2.72;1.85;;;11.40;99.90;;;-144.05;64.49;56984.78;5015878;28;20069;-80
2024/02/16 08:20:28;;;;;;;3.88;1.98;;;10.80;99.90;;;-144.05;64.29;56980.53;5016672;28;20430;-79
2024/02/16 08:22:55;;;;;;;4.32;1.83;;;;;;;-144.05;64.47;56978.41;5015528;28;20021;-78
2024/02/16 08:25:20;;;;;;;5.30;2.42;;;15.30;99.90;;;-144.05;64.26;56982.66;5021071;28;20100;-78
2024/02/16 08:27:46;;;;;;;4.32;1.75;;;15.20;99.90;;;-144.05;64.26;56969.91;5015112;28;20084;-79
2024/02/16 08:30:13;;;;;;;4.30;1.92;;;11.30;99.90;;;-144.05;63.96;57001.75;5016552;28;20095;-79
2024/02/16 08:32:40;;;;;;;5.00;2.33;;;11.60;99.90;;;-144.05;64.12;56969.91;5016486;28;20460;-79
2024/02/16 08:35:06;;;;;;;7.18;1.88;;;15.00;99.90;;;-144.05;63.58;56997.50;5017682;28;20029;-78
2024/02/16 08:37:33;;;;;;;4.53;1.83;;;11.60;99.90;;;-144.05;64.16;56978.41;5015480;28;20018;-79
2024/02/16 08:39:59;;;;;;;6.30;2.30;;;11.80;99.90;;;-144.05;63.99;56997.50;5016706;28;20029;-80
2024/02/16 08:42:25;;;;;;;4.55;1.90;;;15.10;99.90;;;-144.05;63.94;56997.50;5015084;28;20499;-80
2024/02/16 08:44:51;;;;;;;3.88;1.60;;;15.40;99.90;;;-144.05;63.86;56986.91;5020854;28;20044;-79
2024/02/16 08:47:17;;;;;;;4.43;1.67;;;12.10;99.90;;;-144.05;63.71;56989.00;5034540;28;20038;-80
2024/02/16 08:49:43;;;;;;;8.55;2.03;;;;;;;-144.05;64.11;56984.78;5022934;28;20034;-82
2024/02/16 08:52:09;;;;;;;7.15;2.00;;;;;;;-144.05;63.63;56986.91;5018694;28;20026;-81
2024/02/16 08:54:36;;;;;;;3.42;1.80;;;15.70;99.90;;;-144.05;63.82;56980.53;5017213;28;20018;-80
2024/02/16 08:57:03;;;;;;;6.25;2.00;;;15.40;99.90;;;-144.05;63.68;56997.50;5016280;28;20022;-78
2024/02/16 08:59:30;;;;;;;4.82;1.90;;;15.40;99.90;;;-144.05;63.43;56995.38;5016536;28;20367;-78
2024/02/16 09:01:56;;;;;;;7.78;2.72;;;12.30;99.90;;;-144.05;63.66;56976.28;5015898;28;20026;-80
2024/02/16 09:04:22;;;;;;;3.75;2.25;;;;;;;-144.05;63.42;56976.28;5016364;28;20381;-79
2024/02/16 09:06:49;;;;;;;5.53;2.00;;;;;;;-144.05;63.98;56997.50;5015875;28;20164;-81
2024/02/16 09:09:15;;;;;;;5.43;1.98;;;11.90;99.90;;;-144.05;64.16;56986.91;5015675;28;20021;-77
2024/02/16 09:11:41;;;;;;;3.58;2.03;;;;;;;-144.05;63.77;56993.25;5017378;28;20414;-78
2024/02/16 09:14:07;;;;;;;7.95;2.00;;;15.60;99.90;;;-144.05;63.89;56980.53;5016053;28;20371;-80
2024/02/16 09:16:33;;;;;;;4.07;2.20;;;;;;;-144.05;63.70;56967.78;5015257;28;20026;-78
2024/02/16 09:19:00;;;;;;;5.10;2.30;;;;;;;-144.05;63.74;56948.66;5021398;28;20030;-76
2024/02/16 09:21:28;;;;;;;6.18;2.20;;;11.60;99.90;;;-144.05;63.37;56999.63;5015916;28;20510;-81
2024/02/16 09:23:58;;;;;;;6.20;1.80;;;12.40;99.90;;;-144.05;63.55;56980.53;5017005;28;20029;-80
2024/02/16 09:26:26;;;;;;;6.28;2.28;;;;;;;-144.05;63.03;56963.53;5019794;28;20026;-80
2024/02/16 09:28:53;;;;;;;5.22;2.10;;;;;;;-144.05;63.14;56959.28;5018156;28;20510;-80
2024/02/16 09:31:19;;;;;;;8.52;2.08;;;15.40;99.90;;;-144.05;63.48;56980.53;5017372;28;20026;-79
2024/02/16 09:33:44;;;;;;;3.38;1.65;;;12.40;99.90;;;-144.05;62.87;56978.41;5016312;28;20037;-77
2024/02/16 09:36:11;;;;;;;5.97;2.10;;;12.10;99.90;;;-144.05;63.05;56995.38;5014610;28;20030;-78
2024/02/16 09:38:37;;;;;;;3.25;1.85;;;;;;;-144.05;63.26;56986.91;5016538;28;20029;-78
2024/02/16 09:41:03;;;;;;;6.38;2.03;;;16.20;99.90;;;-144.05;62.96;57016.63;5017319;28;20026;-77
2024/02/16 09:43:30;;;;;;;5.13;2.00;;;16.00;99.90;;;-144.05;63.43;57010.25;5016997;28;20030;-79
2024/02/16 09:45:59;;;;;;;4.93;2.22;;;16.20;99.90;;;-144.05;63.23;56984.78;5017180;28;20030;-79
2024/02/16 09:48:28;;;;;;;5.57;2.30;;;15.80;99.90;;;-144.05;63.66;56980.53;5016873;28;20046;-80
2024/02/16 09:51:01;;;;;;;5.35;2.13;;;16.10;99.90;;;-144.05;63.57;56974.16;5032173;28;20022;-79
2024/02/16 09:53:29;;;;;;;6.03;2.38;;;15.80;99.90;;;-144.05;63.50;56942.28;5020265;28;20038;-79
2024/02/16 09:55:56;;;;;;;6.03;2.22;;;11.70;99.90;;;-144.05;63.41;56995.38;5037201;28;20128;-78
2024/02/16 09:58:22;;;;;;;6.20;1.98;;;15.90;99.90;;;-144.05;63.77;56982.66;5021724;28;20153;-78
2024/02/16 10:00:53;;;;;;;4.47;1.98;;;12.60;99.90;;;-144.05;63.53;56967.78;5020452;28;20026;-79
2024/02/16 10:03:36;;;;;;;5.43;2.10;;;12.60;99.90;;;-144.05;63.46;56982.66;5019445;28;20018;-81
2024/02/16 10:06:11;;;;;;;3.67;1.98;;;16.40;99.90;;;-144.05;63.57;56984.78;5017317;28;20036;-80
2024/02/16 10:08:56;;;;;;;4.85;2.33;;;12.30;99.90;;;-144.05;64.01;56989.00;5018931;28;20097;-79
2024/02/16 10:11:28;;;;;;;5.90;2.30;;;12.80;99.90;;;-144.05;63.89;56995.38;5033528;28;20026;-78
2024/02/16 10:14:04;;;;;;;5.95;2.03;;;12.40;99.90;;;-144.05;63.65;56976.28;5018587;28;20101;-78
2024/02/16 10:16:32;;;;;;;3.92;2.17;;;12.50;99.90;;;-144.05;63.39;56980.53;5020213;28;20022;-79